Thunder radar more information blitzortung!


avis per Pluja more information rain snow radar


Visita la nostra xarxa de llocs de meteo:

Template documentation
and downloads

And another site



Rain From: 18-10-2018 10:00 Until: 16:59 warning for: Rain Level: Yellow info button

Pagina Historial Weather Underground text

Diari Resum January 13, 2016 Unitats:  Mètric    Imperial   Tant
« Previous Dia
SegĂźent Dia »
Diari Setmana Mensual Anual Personalitzada
  Maxima: Minima: Media:
Temperatura: -17.8 °C -14 °C -12.3 °C
Punt de rosada: -17.8 °C -19.3 °C -17.8 °C
Humitat: Humidity % 40 % 50 %
Wind Speed: 0 km/h 0 km/h 7.4 km/h
RĂ fegues de vent: 0 km/h - -
Vent:- - SSW
Pression baro: 0 hPa 34601.5 hPa -
Precipitacions: 0 mm    
Historical Graphs
 
 
Dades de taula per January 13, 2016
Temps Temperatura Punt de rosada Pression baro Vent Wind Speed RĂ fegues de vent Humitat Rainfall Rate (Hourly)
-17.8 °C -17.8 °C 0 hPa Calm     Humidity % 0 mm
11:19 -13.3 °C -18.2 °C 34875.8 hPa NNE 9 km/h 9 km/h 54 % 0 mm
11:24 -13.3 °C -18.3 °C 34875.8 hPa ENE 9 km/h 9 km/h 53 % 0 mm
11:34 -13.3 °C -18.3 °C 34875.8 hPa NE 3.1 km/h   53 % 0 mm
11:39 -13.1 °C -18.1 °C 34875.8 hPa ENE 5.1 km/h 5.1 km/h 53 % 0 mm
11:44 -12.9 °C -17.9 °C 34875.8 hPa NE 9 km/h 9 km/h 53 % 0 mm
11:49 -12.9 °C -17.9 °C 34875.8 hPa ENE 9 km/h 9 km/h 53 % 0 mm
11:54 -12.8 °C -17.8 °C 34841.9 hPa NNE 9 km/h 9 km/h 53 % 0 mm
11:59 -12.6 °C -17.7 °C 34841.9 hPa ENE 6.3 km/h 6.3 km/h 53 % 0 mm
12:09 -12.3 °C -17.6 °C 34841.9 hPa SE 9 km/h 9 km/h 52 % 0 mm
12:14 -12.1 °C -17.3 °C 34841.9 hPa NE 6 km/h 6 km/h 52 % 0 mm
12:19 -12.1 °C -17.3 °C 34841.9 hPa North 6 km/h 6 km/h 52 % 0 mm
12:24 -12 °C -17.3 °C 34808.1 hPa ESE 11.9 km/h 11.9 km/h 52 % 0 mm
12:29 -12.1 °C -17.3 °C 34808.1 hPa North 6 km/h 6 km/h 52 % 0 mm
12:34 -11.8 °C -17.1 °C 34808.1 hPa East 9 km/h 9 km/h 52 % 0 mm
12:39 -11.8 °C -17.2 °C 34808.1 hPa NE 9 km/h 9 km/h 51 % 0 mm
12:44 -11.7 °C -17.1 °C 34808.1 hPa ENE 7.6 km/h 7.6 km/h 51 % 0 mm
12:49 -11.7 °C -17.1 °C 34808.1 hPa NNE 6 km/h 6 km/h 51 % 0 mm
12:59 -11.6 °C -17.1 °C 34808.1 hPa NE 6.8 km/h 6.8 km/h 51 % 0 mm
13:04 -11.5 °C -16.9 °C 34808.1 hPa ENE 7.6 km/h 7.6 km/h 51 % 0 mm
13:09 -11.4 °C -16.9 °C 34808.1 hPa ENE 6.8 km/h 6.8 km/h 51 % 0 mm
13:14 -11.4 °C -16.8 °C 34808.1 hPa ENE 9 km/h 9 km/h 51 % 0 mm
13:19 -11.4 °C -17.1 °C 34808.1 hPa East 9 km/h 9 km/h 50 % 0 mm
13:24 -11.3 °C -16.9 °C 34774.2 hPa NNE 7.6 km/h 7.6 km/h 50 % 0 mm
13:29 -11.2 °C -16.8 °C 34774.2 hPa ESE 9.3 km/h 9.3 km/h 50 % 0 mm
13:34 -11.2 °C -17 °C 34774.2 hPa NE 6 km/h 6 km/h 49 % 0 mm
13:39 -11.2 °C -17 °C 34774.2 hPa ESE 6.3 km/h 6.3 km/h 49 % 0 mm
13:44 -11.1 °C -16.9 °C 34774.2 hPa ENE 9 km/h 9 km/h 49 % 0 mm
13:49 -11 °C -16.8 °C 34774.2 hPa NNE 6.8 km/h 6.8 km/h 49 % 0 mm
13:54 -10.9 °C -16.7 °C 34740.4 hPa NNW 3.7 km/h 3.7 km/h 49 % 0 mm
13:59 -10.9 °C -16.7 °C 34740.4 hPa SW 6.8 km/h 6.8 km/h 49 % 0 mm
14:04 -10.7 °C -16.7 °C 34740.4 hPa SW 6 km/h 6 km/h 48 % 0 mm
14:09 -10.7 °C -17 °C 34740.4 hPa SW 15.6 km/h 15.6 km/h 46 % 0 mm
14:14 -10.6 °C -16.9 °C 34740.4 hPa SW 9 km/h 9 km/h 46 % 0 mm
14:19 -10.6 °C -17.4 °C 34740.4 hPa SW 19.6 km/h 19.6 km/h 43 % 0 mm
14:24 -10.5 °C -17.3 °C 34740.4 hPa SW 17.9 km/h 17.9 km/h 43 % 0 mm
14:29 -10.4 °C -17.4 °C 34740.4 hPa SSW 17.9 km/h 17.9 km/h 42 % 0 mm
14:34 -10.3 °C -17.4 °C 34740.4 hPa SSW 11.9 km/h 11.9 km/h 42 % 0 mm
14:39 -10.4 °C -17.7 °C 34740.4 hPa SW 23.8 km/h 23.8 km/h 41 % 0 mm
14:44 -10.3 °C -17.4 °C 34740.4 hPa SW 12.7 km/h 12.7 km/h 42 % 0 mm
14:49 -10.2 °C -17.3 °C 34740.4 hPa WSW 6 km/h 6 km/h 42 % 0 mm
14:54 -10.3 °C -17.3 °C 34740.4 hPa SW 20.9 km/h 20.9 km/h 42 % 0 mm
14:59 -10.3 °C -17.7 °C 34740.4 hPa WSW 20.9 km/h 20.9 km/h 40 % 0 mm
15:04 -10.3 °C -17.7 °C 34740.4 hPa WSW 11.9 km/h 11.9 km/h 40 % 0 mm
15:09 -10.1 °C -17.3 °C 34740.4 hPa WSW 15.3 km/h 15.3 km/h 41 % 0 mm
15:14 -10 °C -17.1 °C 34740.4 hPa SW 14.5 km/h 14.5 km/h 42 % 0 mm
15:19 -10.1 °C -16.9 °C 34740.4 hPa SSW 15 km/h 15 km/h 43 % 0 mm
15:24 -10.2 °C -16.8 °C 34740.4 hPa South 17.9 km/h 17.9 km/h 44 % 0 mm
15:29 -10.2 °C -16.9 °C 34740.4 hPa SSW 12.2 km/h 12.2 km/h 44 % 0 mm
15:34 -10.2 °C -16.7 °C 34740.4 hPa SSW 5.1 km/h 5.1 km/h 45 % 0 mm
15:39 -10.3 °C -16.8 °C 34740.4 hPa South 6 km/h 6 km/h 45 % 0 mm
15:44 -10.4 °C -16.9 °C 34740.4 hPa SSW 9 km/h 9 km/h 45 % 0 mm
15:49 -10.4 °C -16.9 °C 34740.4 hPa SW 9 km/h 9 km/h 45 % 0 mm
15:54 -10.4 °C -16.9 °C 34740.4 hPa SSE 6 km/h 6 km/h 45 % 0 mm
15:59 -10.5 °C -16.8 °C 34740.4 hPa SW 8 km/h 8 km/h 46 % 0 mm
16:04 -10.7 °C -17.1 °C 34740.4 hPa WSW 20.9 km/h 20.9 km/h 45 % 0 mm
16:14 -10.8 °C -17.3 °C 34703.1 hPa SW 15 km/h 15 km/h 45 % 0 mm
16:19 -10.8 °C -17.1 °C 34703.1 hPa SW 11.1 km/h 11.1 km/h 46 % 0 mm
16:24 -10.9 °C -17.2 °C 34703.1 hPa SW 11.9 km/h 11.9 km/h 46 % 0 mm
16:29 -10.9 °C -17.2 °C 34703.1 hPa WSW 11.9 km/h 11.9 km/h 46 % 0 mm
16:44 -11.1 °C -17.2 °C 34740.4 hPa SW 12.7 km/h 12.7 km/h 47 % 0 mm
16:49 -11.2 °C -17.3 °C 34740.4 hPa SW 15 km/h 15 km/h 47 % 0 mm
16:54 -11.3 °C -17.2 °C 34703.1 hPa WSW 12.2 km/h 12.2 km/h 48 % 0 mm
17:00 -11.3 °C -17.3 °C 34703.1 hPa SW 5.1 km/h 12.9 km/h 48 % 0 mm
17:05 -11.4 °C -17.1 °C 34703.1 hPa SW 7.7 km/h 12.9 km/h 49 % 0 mm
17:10 -11.5 °C -17.3 °C 34740.4 hPa SW 5.1 km/h 10.3 km/h 49 % 0 mm
17:15 -11.6 °C -17.1 °C 34740.4 hPa SW 7.7 km/h 10.3 km/h 50 % 0 mm
17:20 -11.6 °C -17.2 °C 34740.4 hPa SW 7.7 km/h 10.3 km/h 50 % 0 mm
17:25 -11.7 °C -17.1 °C 34703.1 hPa SW 7.7 km/h 10.3 km/h 51 % 0 mm
17:30 -11.8 °C -17.2 °C 34703.1 hPa SW 11.1 km/h 11.1 km/h 51 % 0 mm
17:35 -11.8 °C -17.1 °C 34703.1 hPa SW 7.7 km/h 15.6 km/h 52 % 0 mm
17:40 -11.9 °C -17.1 °C 34703.1 hPa SW 7.7 km/h 18.2 km/h 52 % 0 mm
17:45 -11.9 °C -17.2 °C 34703.1 hPa SW 7.7 km/h 18.2 km/h 52 % 0 mm
17:50 -12 °C -17.3 °C 34703.1 hPa SW 7.7 km/h 12.9 km/h 52 % 0 mm
17:55 -12 °C -17.3 °C 34703.1 hPa SW 7.7 km/h 12.9 km/h 52 % 0 mm
18:00 -12.1 °C -17.3 °C 34703.1 hPa SW 9 km/h 9 km/h 52 % 0 mm
18:05 -12.2 °C -17.4 °C 34703.1 hPa WSW 9 km/h 9 km/h 52 % 0 mm
18:10 -12.2 °C -17.4 °C 34740.4 hPa SW 5.1 km/h 12.9 km/h 52 % 0 mm
18:15 -12.3 °C -17.5 °C 34740.4 hPa SW 4.2 km/h 5.6 km/h 52 % 0 mm
18:20 -12.3 °C -17.4 °C 34740.4 hPa WSW 6 km/h 9.3 km/h 53 % 0 mm
18:25 -12.4 °C -17.4 °C 34740.4 hPa WSW 5.1 km/h 12.9 km/h 53 % 0 mm
18:35 -12.6 °C -17.6 °C 34740.4 hPa SW 5.1 km/h 10.3 km/h 53 % 0 mm
18:40 -12.6 °C -17.7 °C 34740.4 hPa WSW 2.6 km/h 7.7 km/h 53 % 0 mm
18:45 -12.7 °C -17.7 °C 34740.4 hPa SW 5.1 km/h 7.7 km/h 53 % 0 mm
18:50 -12.7 °C -17.8 °C 34740.4 hPa WSW 6.3 km/h 6.3 km/h 53 % 0 mm
18:55 -12.8 °C -17.8 °C 34703.1 hPa WSW 5.1 km/h 7.7 km/h 53 % 0 mm
19:00 -12.8 °C -17.9 °C 34703.1 hPa WSW 5.1 km/h 7.7 km/h 53 % 0 mm
19:05 -12.9 °C -17.8 °C 34703.1 hPa SW 5.1 km/h 7.7 km/h 54 % 0 mm
19:10 -13 °C -17.9 °C 34703.1 hPa SW 5.1 km/h 7.7 km/h 54 % 0 mm
19:15 -13 °C -17.9 °C 34703.1 hPa SW 5.1 km/h 7.7 km/h 54 % 0 mm
19:20 -13.1 °C -17.9 °C 34703.1 hPa WSW 5.1 km/h 10.3 km/h 54 % 0 mm
19:25 -13.1 °C -18 °C 34703.1 hPa WSW 5.1 km/h 10.3 km/h 54 % 0 mm
19:30 -13.2 °C -18.1 °C 34703.1 hPa WSW 5.1 km/h 7.7 km/h 54 % 0 mm
19:35 -13.2 °C -18.1 °C 34703.1 hPa WSW 5.1 km/h 10.3 km/h 54 % 0 mm
19:40 -13.2 °C -18.1 °C 34703.1 hPa WSW 5.1 km/h 7.7 km/h 54 % 0 mm
19:45 -13.2 °C -18.1 °C 34703.1 hPa WSW 5.1 km/h 7.7 km/h 54 % 0 mm
19:50 -13.3 °C -18.3 °C 34703.1 hPa WSW 5.1 km/h 5.1 km/h 53 % 0 mm
19:55 -13.3 °C -18.3 °C 34669.3 hPa WSW 2.6 km/h 5.1 km/h 53 % 0 mm
20:00 -13.3 °C -18.3 °C 34669.3 hPa WSW 2.6 km/h 5.1 km/h 53 % 0 mm
20:05 -13.4 °C -18.4 °C 34669.3 hPa WSW 2.6 km/h 5.1 km/h 53 % 0 mm
20:10 -13.4 °C -18.4 °C 34703.1 hPa Calm   5.1 km/h 53 % 0 mm
20:15 -13.4 °C -18.4 °C 34703.1 hPa WSW 2.6 km/h 5.1 km/h 53 % 0 mm
20:20 -13.4 °C -18.4 °C 34703.1 hPa SW 2.6 km/h 5.1 km/h 53 % 0 mm
20:25 -13.5 °C -18.5 °C 34669.3 hPa SW 2.6 km/h 5.1 km/h 53 % 0 mm
20:30 -13.6 °C -18.6 °C 34669.3 hPa WSW 2.6 km/h 5.1 km/h 53 % 0 mm
20:35 -13.6 °C -18.6 °C 34669.3 hPa SW 3.1 km/h 3.7 km/h 53 % 0 mm
20:40 -13.6 °C -18.6 °C 34669.3 hPa Calm   2.6 km/h 53 % 0 mm
20:45 -13.7 °C -18.7 °C 34669.3 hPa Calm     53 % 0 mm
20:50 -13.7 °C -18.8 °C 34669.3 hPa Calm     52 % 0 mm
20:55 -13.7 °C -18.8 °C 34669.3 hPa WSW 2.6 km/h 2.6 km/h 52 % 0 mm
21:00 -13.7 °C -18.8 °C 34669.3 hPa WSW 2.3 km/h 3.1 km/h 52 % 0 mm
21:05 -13.7 °C -18.8 °C 34669.3 hPa SW 6.8 km/h 6.8 km/h 52 % 0 mm
21:10 -13.6 °C -18.7 °C 34635.4 hPa WSW 5.1 km/h 7.7 km/h 52 % 0 mm
21:15 -13.5 °C -18.7 °C 34635.4 hPa WSW 2.6 km/h 7.7 km/h 52 % 0 mm
21:20 -13.4 °C -18.7 °C 34635.4 hPa WSW 6 km/h   51 % 0 mm
21:25 -13.4 °C -18.7 °C 34669.3 hPa WSW 2.6 km/h 5.1 km/h 51 % 0 mm
21:30 -13.4 °C -18.7 °C 34669.3 hPa WSW 2.6 km/h 5.1 km/h 51 % 0 mm
21:35 -13.4 °C -18.7 °C 34669.3 hPa WSW 2.6 km/h 5.1 km/h 51 % 0 mm
21:45 -13.7 °C -19 °C 34669.3 hPa WSW 2.6 km/h 5.1 km/h 51 % 0 mm
21:50 -13.8 °C -19.1 °C 34669.3 hPa WSW 2.6 km/h 5.1 km/h 51 % 0 mm
21:55 -13.8 °C -19.1 °C 34669.3 hPa SW 7.7 km/h 7.7 km/h 51 % 0 mm
22:00 -13.8 °C -19.1 °C 34669.3 hPa SW 8 km/h 8 km/h 51 % 0 mm
22:05 -13.9 °C -19.1 °C 34669.3 hPa WSW 7.6 km/h 8.5 km/h 51 % 0 mm
22:10 -13.9 °C -19.1 °C 34635.4 hPa WSW 5.1 km/h 10.3 km/h 51 % 0 mm
22:15 -13.9 °C -19.1 °C 34635.4 hPa SW 5.1 km/h 7.7 km/h 51 % 0 mm
22:20 -13.9 °C -19.1 °C 34635.4 hPa SW 5.1 km/h 7.7 km/h 51 % 0 mm
22:25 -13.8 °C -19.1 °C 34635.4 hPa SW 5.1 km/h 7.7 km/h 51 % 0 mm
22:30 -13.7 °C -19 °C 34635.4 hPa SW 5.1 km/h 7.7 km/h 51 % 0 mm
22:35 -13.8 °C -19.1 °C 34635.4 hPa WSW 5.1 km/h 7.7 km/h 51 % 0 mm
22:40 -13.9 °C -19.2 °C 34635.4 hPa WSW 6.8 km/h 6.8 km/h 51 % 0 mm
22:50 -14 °C -19.3 °C 34635.4 hPa WSW 5.1 km/h 7.7 km/h 51 % 0 mm
22:55 -14 °C -19.3 °C 34635.4 hPa WSW 2.6 km/h 7.7 km/h 51 % 0 mm
23:00 -13.9 °C -19.2 °C 34635.4 hPa WSW 5.1 km/h 7.7 km/h 51 % 0 mm
23:05 -13.9 °C -19.2 °C 34635.4 hPa WSW 5.1 km/h 7.7 km/h 51 % 0 mm
23:10 -13.9 °C -19.1 °C 34635.4 hPa WSW 9 km/h 9 km/h 51 % 0 mm
23:15 -13.8 °C -19.1 °C 34635.4 hPa West 6.8 km/h 6.8 km/h 51 % 0 mm
23:20 -13.8 °C -19.1 °C 34635.4 hPa WSW 7.6 km/h 7.6 km/h 51 % 0 mm
23:25 -13.8 °C -19.1 °C 34635.4 hPa West 5.1 km/h 7.7 km/h 51 % 0 mm
23:30 -13.7 °C -19 °C 34635.4 hPa WSW 5.1 km/h 5.1 km/h 51 % 0 mm
23:35 -13.8 °C -19.1 °C 34635.4 hPa WSW 6.8 km/h 6.8 km/h 51 % 0 mm
23:40 -13.8 °C -19.1 °C 34601.5 hPa WSW 2.6 km/h 7.7 km/h 51 % 0 mm
23:45 -13.8 °C -19.1 °C 34601.5 hPa SW 6 km/h 6 km/h 51 % 0 mm
Meteo Sesrovires
Elogis d' Weather Underground - 1.25 mb

Guio original per  Jim McMurry - jmcmurry@mwt.net Adaptat per a la plantilla per  Wim van der Kuil - Leuven-Template.eu

Trobareu la nostra informacio del temps tambe a:

Weather Underground

AWEKAS